Time;durP1;ratioP1;P1;durP2;ratioP2;P2;SDS_P1;SDS_P2;PMS_P1;PMS_P2;Temp;Humidity;BMP_temperature;BMP_pressure;BME280_temperature;BME280_humidity;BME280_pressure;Samples;Min_cycle;Max_cycle;Signal;HPM_P1;HPM_P2
2023/09/21 00:01:07;;;;;;;10.25;7.28;;;;;;;-145.63;42.50;38856.06;5020316;28;20053;-68
2023/09/21 00:03:37;;;;;;;9.23;6.72;;;;;;;-145.63;42.35;38785.66;5025454;28;20064;-67
2023/09/21 00:06:04;;;;;;;11.45;6.55;;;;;;;-145.63;42.60;38820.88;5031553;28;20029;-66
2023/09/21 00:08:30;;;;;;;11.50;7.28;;;;;;;-145.63;43.04;38815.00;5041888;28;20032;-66
2023/09/21 00:10:57;;;;;;;9.18;7.10;;;;;;;-145.63;42.98;38803.28;5013743;28;20033;-67
2023/09/21 00:13:26;;;;;;;12.80;7.20;;;;;;;-145.63;43.80;38885.41;5024156;28;20158;-66
2023/09/21 00:15:52;;;;;;;10.80;7.10;;;;;;;-145.63;43.09;38838.47;5012548;28;20040;-68
2023/09/21 00:18:20;;;;;;;11.38;6.93;;;;;;;-145.63;43.79;38818.91;5012615;28;20198;-66
2023/09/21 00:20:51;;;;;;;10.57;7.75;;;;;;;-145.63;44.00;38848.25;5021378;28;20279;-67
2023/09/21 00:23:16;;;;;;;9.35;7.28;;;;;;;-145.63;43.89;38816.97;5005674;28;20045;-67
2023/09/21 00:25:42;;;;;;;13.40;7.38;;;;;;;-145.63;44.01;38834.56;5028281;28;20053;-66
2023/09/21 00:28:08;;;;;;;10.63;7.38;;;;;;;-145.63;44.06;38795.44;5035262;28;20021;-68
2023/09/21 00:30:37;;;;;;;9.07;6.93;;;;;;;-145.63;43.86;38832.59;5034392;28;20034;-67
2023/09/21 00:33:07;;;;;;;9.25;6.90;;;;;;;-145.63;43.74;38822.81;5025050;28;20322;-69
2023/09/21 00:35:39;;;;;;;12.32;7.55;;;;;;;-145.63;43.80;38824.78;5023108;28;20064;-68
2023/09/21 00:38:14;;;;;;;;;;;;;;;-145.63;44.25;38834.56;5006178;28;20038;-67
2023/09/21 00:40:40;;;;;;;7.90;6.50;;;;;;;-145.63;44.38;38836.50;5004063;28;19910;-66
2023/09/21 00:43:18;;;;;;;13.27;7.93;;;;;;;-145.63;44.86;38813.03;5024943;28;20041;-68
2023/09/21 00:45:50;;;;;;;10.65;7.05;;;;;;;-145.63;44.64;38813.03;5020703;28;20041;-70
2023/09/21 00:48:22;;;;;;;10.52;7.68;;;;;;;-145.63;44.32;38852.16;5036890;28;20026;-66
2023/09/21 00:50:49;;;;;;;8.57;7.40;;;;;;;-145.63;44.52;38813.03;5024685;28;20089;-66
2023/09/21 00:53:15;;;;;;;11.15;7.05;;;;;;;-145.63;44.81;38822.81;5024619;28;20089;-66
2023/09/21 00:55:47;;;;;;;8.85;7.32;;;;;;;-145.63;44.92;38539.28;5024396;28;20022;-67
2023/09/21 00:58:12;;;;;;;9.05;6.70;;;;;;;-145.63;44.25;38805.22;5024487;28;20034;-66
2023/09/21 01:00:39;;;;;;;9.95;6.47;;;;;;;-145.63;44.68;38828.69;5013787;28;20140;-67
2023/09/21 01:03:14;;;;;;;8.98;6.78;;;;;;;-145.63;45.22;38684.00;5004725;28;20331;-67
2023/09/21 01:05:44;;;;;;;10.57;7.45;;;;;;;-145.63;44.74;38840.44;5014216;28;20029;-67
2023/09/21 01:08:11;;;;;;;7.95;7.15;;;;;;;-145.63;44.74;38842.38;5024417;28;20026;-67
2023/09/21 01:10:44;;;;;;;8.38;6.57;;;;;;;-145.63;44.63;38854.13;5011431;28;20056;-68
2023/09/21 01:13:11;;;;;;;12.02;7.05;;;;;;;-145.63;44.73;38840.44;5023245;28;20026;-68
2023/09/21 01:15:37;;;;;;;8.82;6.53;;;;;;;-145.63;44.71;38838.47;5014238;28;20031;-67
2023/09/21 01:18:04;;;;;;;7.78;6.97;;;;;;;-145.63;44.89;38777.84;5010331;28;20029;-65
2023/09/21 01:20:32;;;;;;;8.13;7.13;;;;;;;-145.63;45.37;38836.50;5023131;28;20097;-67
2023/09/21 01:23:14;;;;;;;10.85;7.28;;;;;;;-145.63;45.03;38877.56;5003432;28;20026;-66
2023/09/21 01:25:44;;;;;;;9.57;7.13;;;;;;;-145.63;45.06;38842.38;5010966;28;20064;-66
2023/09/21 01:28:18;;;;;;;9.00;7.30;;;;;;;-145.63;45.46;38848.25;5032657;28;20262;-66
2023/09/21 01:30:45;;;;;;;11.02;7.25;;;;;;;-145.63;45.52;38858.03;5032551;28;20052;-68
2023/09/21 01:33:11;;;;;;;7.38;6.65;;;;;;;-145.63;45.39;38375.03;5017883;28;20109;-68
2023/09/21 01:35:38;;;;;;;12.48;7.40;;;;;;;-145.63;45.81;38848.25;5003331;28;20041;-68
2023/09/21 01:38:06;;;;;;;8.40;7.03;;;;;;;-145.63;45.41;38873.66;5004271;28;20037;-68
2023/09/21 01:40:34;;;;;;;8.23;6.90;;;;;;;-145.63;45.55;38865.84;5021056;28;20030;-68
2023/09/21 01:43:08;;;;;;;7.60;6.45;;;;;;;-145.63;45.60;38838.47;5023763;28;20206;-68
2023/09/21 01:45:37;;;;;;;8.07;7.28;;;;;;;-145.63;45.62;38875.63;5026015;28;20022;-69
2023/09/21 01:48:08;;;;;;;9.75;7.22;;;;;;;-145.63;45.50;38879.53;5038121;28;20060;-68
2023/09/21 01:50:43;;;;;;;8.32;6.80;;;;;;;-145.63;45.78;38848.25;5023349;28;20025;-68
2023/09/21 01:53:12;;;;;;;9.15;6.93;;;;;;;-145.63;46.00;38856.06;5023400;28;20032;-68
2023/09/21 01:55:39;;;;;;;7.53;6.65;;;;;;;-145.63;46.15;38846.28;5023457;28;20050;-69
2023/09/21 01:58:06;;;;;;;9.70;7.60;;;;;;;-145.63;45.95;38883.44;5010071;28;20084;-67
2023/09/21 02:00:35;;;;;;;9.65;7.40;;;;;;;-145.63;45.95;38830.66;5012479;28;20224;-67
2023/09/21 02:03:03;;;;;;;7.90;7.10;;;;;;;-145.63;46.59;38838.47;5023505;28;20053;-68
2023/09/21 02:05:29;;;;;;;15.55;8.00;;;;;;;-145.63;46.19;38904.97;5022964;28;20104;-67
2023/09/21 02:07:55;;;;;;;8.80;6.93;;;;;;;-145.63;45.97;38867.81;5022010;28;20074;-65
2023/09/21 02:10:22;;;;;;;10.60;6.93;;;;;;;-145.63;46.22;38863.88;5011015;28;20044;-65
2023/09/21 02:12:56;;;;;;;8.60;7.10;;;;;;;-145.63;46.22;38858.03;5022895;28;20026;-65
2023/09/21 02:15:24;;;;;;;9.93;7.50;;;;;;;-145.63;46.66;38676.16;5015849;28;20754;-67
2023/09/21 02:17:52;;;;;;;11.23;7.38;;;;;;;-145.63;46.98;38869.75;5003689;28;20030;-67
2023/09/21 02:20:20;;;;;;;11.35;7.70;;;;;;;-145.63;46.80;38883.44;5003643;28;20361;-66
2023/09/21 02:22:48;;;;;;;7.80;6.65;;;;;;;-145.63;46.69;38842.38;5021879;28;20149;-66
2023/09/21 02:25:14;;;;;;;8.35;7.00;;;;;;;-145.63;46.90;38854.13;5008328;28;20100;-66
2023/09/21 02:27:41;;;;;;;10.75;7.05;;;;;;;-145.63;46.75;38848.25;5012700;28;20053;-66
2023/09/21 02:30:16;;;;;;;9.15;7.18;;;;;;;-145.63;46.73;38883.44;5003295;28;20035;-66
2023/09/21 02:32:45;;;;;;;9.43;7.68;;;;;;;-145.63;46.82;38222.53;5005340;28;20052;-66
2023/09/21 02:35:15;;;;;;;13.50;8.23;;;;;;;-145.63;47.03;38863.88;5023085;28;20021;-68
2023/09/21 02:37:48;;;;;;;7.90;7.10;;;;;;;-145.63;46.71;38856.06;5004998;28;20029;-67
2023/09/21 02:40:17;;;;;;;9.40;7.20;;;;;;;-145.63;46.96;38861.94;5017553;28;20026;-67
2023/09/21 02:42:49;;;;;;;7.15;6.45;;;;;;;-145.63;46.88;38893.22;5023040;28;20041;-65
2023/09/21 02:45:19;;;;;;;7.32;6.07;;;;;;;-145.63;47.47;38899.09;5016736;28;20105;-68
2023/09/21 02:47:47;;;;;;;10.43;7.75;;;;;;;-145.63;47.01;38852.16;5040368;28;20064;-67
2023/09/21 02:50:14;;;;;;;9.82;7.25;;;;;;;-145.63;47.00;38869.75;5023117;28;20073;-67
2023/09/21 02:52:45;;;;;;;9.80;7.03;;;;;;;-145.63;47.41;38871.72;5021473;28;20037;-67
2023/09/21 02:55:20;;;;;;;10.23;6.70;;;;;;;-145.63;47.13;38859.97;5008850;28;20026;-65
2023/09/21 02:57:49;;;;;;;8.95;6.95;;;;;;;-145.63;47.26;38859.97;5013590;28;20041;-68
2023/09/21 03:00:26;;;;;;;7.95;6.25;;;;;;;-145.63;47.28;38871.72;5016786;28;20029;-68
2023/09/21 03:02:55;;;;;;;8.90;7.20;;;;;;;-145.63;47.39;38867.81;5033018;28;20032;-67
2023/09/21 03:05:23;;;;;;;8.75;7.78;;;;;;;-145.63;47.21;38859.97;5025832;28;20044;-66
2023/09/21 03:07:49;;;;;;;10.10;6.93;;;;;;;-145.63;47.42;38903.00;5026544;28;20219;-64
2023/09/21 03:10:16;;;;;;;11.00;7.45;;;;;;;-145.63;47.42;38893.22;5014822;28;20033;-64
2023/09/21 03:12:42;;;;;;;10.48;8.63;;;;;;;-145.63;47.61;38871.72;5025169;28;20080;-66
2023/09/21 03:15:15;;;;;;;7.30;6.60;;;;;;;-145.63;47.34;38852.16;5020179;28;20327;-65
2023/09/21 03:17:42;;;;;;;9.38;8.30;;;;;;;-145.63;47.80;38897.13;5019468;28;20301;-65
2023/09/21 03:20:12;;;;;;;7.20;6.50;;;;;;;-145.63;47.91;38871.72;5026389;28;20105;-66
2023/09/21 03:22:39;;;;;;;8.38;7.32;;;;;;;-145.63;47.66;38914.72;5008857;28;20026;-65
2023/09/21 03:25:16;;;;;;;10.40;7.60;;;;;;;-145.63;47.74;38873.66;5019078;28;20038;-65
2023/09/21 03:27:43;;;;;;;11.73;9.90;;;;;;;-145.63;47.80;38895.19;5016032;28;20199;-66
2023/09/21 03:30:11;;;;;;;11.40;8.48;;;;;;;-145.63;48.22;38883.44;5020618;28;20050;-66
2023/09/21 03:32:41;;;;;;;12.77;8.18;;;;;;;-145.63;47.93;38879.53;5006936;28;20037;-64
2023/09/21 03:35:11;;;;;;;11.40;8.00;;;;;;;-145.63;47.96;38901.03;5025923;28;20022;-66
2023/09/21 03:37:43;;;;;;;10.60;7.75;;;;;;;-145.63;47.82;38899.09;5009146;28;20018;-66
2023/09/21 03:40:10;;;;;;;10.52;7.70;;;;;;;-145.63;48.18;38887.34;5031498;28;20021;-67
2023/09/21 03:42:37;;;;;;;9.73;7.95;;;;;;;-145.63;48.11;38899.09;5029790;28;20018;-67
2023/09/21 03:45:04;;;;;;;9.32;7.07;;;;;;;-145.63;47.95;38891.28;5021441;28;20336;-66
2023/09/21 03:47:30;;;;;;;7.65;6.85;;;;;;;-145.63;48.75;38918.66;5043378;28;20025;-67
2023/09/21 03:50:03;;;;;;;8.00;6.75;;;;;;;-145.63;48.34;38895.19;5004875;28;20048;-66
2023/09/21 03:52:31;;;;;;;7.55;6.65;;;;;;;-145.63;48.37;38895.19;5022016;28;20191;-65
2023/09/21 03:54:57;;;;;;;8.13;7.28;;;;;;;-145.63;48.09;38247.94;5014476;28;20030;-66
2023/09/21 03:57:22;;;;;;;12.57;8.32;;;;;;;-145.63;48.06;38916.69;5012901;28;20036;-66
2023/09/21 03:59:48;;;;;;;12.35;7.05;;;;;;;-145.63;48.39;38903.00;5023393;28;20330;-68
2023/09/21 04:02:14;;;;;;;10.20;7.05;;;;;;;-145.63;48.16;38861.94;5005982;28;20033;-66
2023/09/21 04:04:41;;;;;;;7.45;6.63;;;;;;;-145.63;48.09;38879.53;5005738;28;20030;-66
2023/09/21 04:07:12;;;;;;;9.10;6.93;;;;;;;-145.63;48.12;38893.22;5023355;28;20326;-66
2023/09/21 04:09:38;;;;;;;8.60;6.65;;;;;;;-145.63;48.19;38842.38;5016876;28;20023;-66
2023/09/21 04:12:04;;;;;;;8.20;6.82;;;;;;;-145.63;48.41;38897.13;5030678;28;20037;-65
2023/09/21 04:14:30;;;;;;;11.38;7.30;;;;;;;-145.63;48.48;38846.28;5022080;28;20050;-65
2023/09/21 04:16:56;;;;;;;8.80;6.70;;;;;;;-145.63;48.39;38856.06;5017160;28;20238;-66
2023/09/21 04:19:23;;;;;;;9.82;7.63;;;;;;;-145.63;48.42;38871.72;5025334;28;20034;-65
2023/09/21 04:21:50;;;;;;;9.70;8.30;;;;;;;-145.63;47.98;38889.31;5020065;28;20040;-66
2023/09/21 04:24:19;;;;;;;11.95;7.32;;;;;;;-145.63;48.15;38856.06;5019609;28;20096;-68
2023/09/21 04:26:44;;;;;;;12.63;7.35;;;;;;;-145.63;47.99;38836.50;5024995;28;20045;-66
2023/09/21 04:29:11;;;;;;;11.63;7.38;;;;;;;-145.63;48.39;38875.63;5017754;28;20088;-65
2023/09/21 04:31:38;;;;;;;14.43;7.32;;;;;;;-145.63;48.32;38693.75;5020780;28;20030;-67
2023/09/21 04:34:04;;;;;;;11.10;7.93;;;;;;;-145.63;48.25;38844.34;5024945;28;20026;-65
2023/09/21 04:36:30;;;;;;;8.88;8.00;;;;;;;-145.63;48.51;38867.81;5024411;28;20060;-66
2023/09/21 04:38:56;;;;;;;9.82;7.93;;;;;;;-145.63;48.36;38858.03;5021786;28;20345;-63
2023/09/21 04:41:22;;;;;;;12.00;7.97;;;;;;;-145.63;48.20;38871.72;5011128;28;20040;-63
2023/09/21 04:43:48;;;;;;;11.70;7.50;;;;;;;-145.63;48.61;38844.34;5024707;28;20321;-64
2023/09/21 04:46:14;;;;;;;11.23;8.13;;;;;;;-145.63;48.75;38850.19;5032583;28;20021;-63
2023/09/21 04:48:41;;;;;;;11.82;8.90;;;;;;;-145.63;48.71;38863.88;5035645;28;20093;-63
2023/09/21 04:51:12;;;;;;;11.35;8.23;;;;;;;-145.63;48.63;38824.78;5024733;28;20030;-64
2023/09/21 04:53:38;;;;;;;12.88;9.02;;;;;;;-145.63;48.91;38893.22;5024594;28;20210;-65
2023/09/21 04:56:04;;;;;;;14.00;8.82;;;;;;;-145.63;48.67;38889.31;5005150;28;20122;-64
2023/09/21 04:58:29;;;;;;;10.38;9.30;;;;;;;-145.63;48.29;38871.72;5020011;28;20030;-63
2023/09/21 05:00:55;;;;;;;10.23;8.45;;;;;;;-145.63;48.67;38863.88;5016364;28;20037;-64
2023/09/21 05:03:21;;;;;;;10.75;7.68;;;;;;;-145.63;48.40;38854.13;5014355;28;20250;-63
2023/09/21 05:05:47;;;;;;;10.70;7.95;;;;;;;-145.63;48.35;38856.06;5015133;28;20036;-64
2023/09/21 05:08:13;;;;;;;11.35;7.65;;;;;;;-145.63;48.66;38850.19;5024212;28;20025;-63
2023/09/21 05:10:42;;;;;;;11.77;8.40;;;;;;;-145.63;48.50;38873.66;5012838;28;20030;-63
2023/09/21 05:13:07;;;;;;;11.13;8.57;;;;;;;-145.63;48.64;38852.16;5023867;28;20029;-64
2023/09/21 05:15:33;;;;;;;9.88;7.75;;;;;;;-145.63;48.12;38859.97;5035693;28;20033;-63
2023/09/21 05:17:59;;;;;;;13.07;8.02;;;;;;;-145.63;48.30;38852.16;5021129;28;20041;-64
2023/09/21 05:20:25;;;;;;;9.05;8.13;;;;;;;-145.63;48.08;38809.13;5004321;28;20330;-63
2023/09/21 05:22:51;;;;;;;16.08;12.82;;;;;;;-145.63;48.11;38865.84;5021040;28;20080;-64
2023/09/21 05:25:17;;;;;;;11.52;8.43;;;;;;;-145.63;48.32;38816.97;5011159;28;20030;-63
2023/09/21 05:27:44;;;;;;;9.18;7.70;;;;;;;-145.63;48.00;38844.34;5033190;28;20054;-62
2023/09/21 05:30:10;;;;;;;11.07;8.00;;;;;;;-145.63;47.98;38842.38;5023268;28;20097;-64
2023/09/21 05:32:37;;;;;;;10.60;8.40;;;;;;;-145.63;47.58;38805.22;5023283;28;20229;-63
2023/09/21 05:35:07;;;;;;;10.70;7.70;;;;;;;-145.63;47.55;38801.31;5004075;28;20034;-63
2023/09/21 05:37:35;;;;;;;11.30;8.07;;;;;;;-145.63;47.30;38852.16;5002816;28;20030;-63
2023/09/21 05:40:05;;;;;;;36.95;11.02;;;;;;;-145.63;47.98;38828.69;5016322;28;20029;-63
2023/09/21 05:42:31;;;;;;;48.97;12.82;;;;;;;-145.63;47.74;38791.53;5023501;28;20076;-64
2023/09/21 05:44:56;;;;;;;13.77;8.27;;;;;;;-145.63;47.87;38828.69;5021367;28;20326;-64
2023/09/21 05:47:22;;;;;;;10.20;8.07;;;;;;;-145.63;47.89;38836.50;5038272;28;20033;-63
2023/09/21 05:49:47;;;;;;;14.68;8.57;;;;;;;-145.63;48.08;38850.19;5025938;28;20230;-62
2023/09/21 05:52:13;;;;;;;11.82;8.40;;;;;;;-145.63;47.96;38811.09;5023324;28;20030;-62
2023/09/21 05:54:42;;;;;;;12.07;8.32;;;;;;;-145.63;47.80;38803.28;5015285;28;20195;-62
2023/09/21 05:57:08;;;;;;;10.30;8.20;;;;;;;-145.63;48.47;38846.28;5007293;28;20068;-63
2023/09/21 05:59:36;;;;;;;10.43;8.75;;;;;;;-145.63;47.76;38834.56;5022328;28;20326;-63
2023/09/21 06:02:07;;;;;;;10.27;9.02;;;;;;;-145.63;47.98;38783.72;5004446;28;20034;-63
2023/09/21 06:04:34;;;;;;;12.88;8.57;;;;;;;-145.63;47.87;38789.59;5018313;28;20035;-63
2023/09/21 06:07:00;;;;;;;10.40;8.82;;;;;;;-145.63;47.84;38785.66;5026845;28;20022;-62
2023/09/21 06:09:27;;;;;;;13.07;9.00;;;;;;;-145.63;47.55;38820.88;5017221;28;20050;-63
2023/09/21 06:11:53;;;;;;;15.95;9.23;;;;;;;-145.63;47.66;38818.91;5019318;28;20030;-63
2023/09/21 06:14:22;;;;;;;12.55;8.23;;;;;;;-145.63;47.55;38789.59;5023438;28;20025;-63
2023/09/21 06:16:49;;;;;;;11.50;8.93;;;;;;;-145.63;47.91;38660.53;5006095;28;20049;-63
2023/09/21 06:19:15;;;;;;;12.45;8.57;;;;;;;-145.63;47.61;38828.69;5015943;28;20088;-63
2023/09/21 06:21:41;;;;;;;10.65;8.05;;;;;;;-145.63;47.44;38805.22;5015164;28;20041;-63
2023/09/21 06:24:09;;;;;;;11.63;8.82;;;;;;;-145.63;47.49;38058.28;5006752;28;20034;-63
2023/09/21 06:26:35;;;;;;;14.48;8.98;;;;;;;-145.63;48.00;38836.50;5033624;28;20149;-63
2023/09/21 06:29:01;;;;;;;11.48;9.40;;;;;;;-145.63;47.67;38836.50;5023939;28;20037;-62
2023/09/21 06:31:27;;;;;;;12.88;9.55;;;;;;;-145.63;47.59;38820.88;5008808;28;20033;-63
2023/09/21 06:33:58;;;;;;;14.88;10.65;;;;;;;-145.63;48.08;38822.81;5003488;28;20318;-63
2023/09/21 06:36:33;;;;;;;12.18;9.45;;;;;;;-145.63;47.87;38713.31;5008743;28;20079;-63
2023/09/21 06:38:58;;;;;;;12.40;9.35;;;;;;;-145.63;47.91;38799.34;5022309;28;20055;-63
2023/09/21 06:41:25;;;;;;;13.73;9.70;;;;;;;-145.63;48.45;38832.59;5012575;28;20089;-63
2023/09/21 06:43:51;;;;;;;12.65;9.38;;;;;;;-145.63;47.93;38811.09;5027457;28;20022;-63
2023/09/21 06:46:18;;;;;;;12.07;9.85;;;;;;;-145.63;48.07;38781.75;5030875;28;20033;-61
2023/09/21 06:48:45;;;;;;;14.95;10.30;;;;;;;-145.63;48.42;38856.06;5038423;28;20033;-63
2023/09/21 06:51:11;;;;;;;15.50;10.63;;;;;;;-145.63;48.17;38781.75;5026730;28;20053;-63
2023/09/21 06:53:37;;;;;;;15.15;11.07;;;;;;;-145.63;48.22;38832.59;5026560;28;20295;-64
2023/09/21 06:56:03;;;;;;;15.52;10.85;;;;;;;-145.63;48.22;38828.69;5028913;28;20056;-62
2023/09/21 06:58:32;;;;;;;11.43;9.40;;;;;;;-145.63;48.42;38816.97;5031166;28;20049;-64
2023/09/21 07:00:58;;;;;;;14.18;10.52;;;;;;;-145.63;48.59;38822.81;5016785;28;20045;-63
2023/09/21 07:03:25;;;;;;;16.65;11.00;;;;;;;-145.63;48.84;38824.78;5012102;28;20206;-62
2023/09/21 07:05:50;;;;;;;14.45;10.75;;;;;;;-145.63;48.28;38809.13;5028883;28;20021;-64
2023/09/21 07:08:17;;;;;;;15.25;12.15;;;;;;;-145.63;48.37;38813.03;5026571;28;20073;-63
2023/09/21 07:10:43;;;;;;;17.52;10.95;;;;;;;-145.63;48.24;38764.16;5018907;28;20217;-62
2023/09/21 07:13:10;;;;;;;13.15;11.52;;;;;;;-145.63;48.46;38746.56;5026580;28;20302;-63
2023/09/21 07:15:37;;;;;;;15.50;12.80;;;;;;;-145.63;48.03;38783.72;5026351;28;20037;-63
2023/09/21 07:18:07;;;;;;;18.67;12.70;;;;;;;-145.63;48.20;38742.66;5039052;28;20044;-63
2023/09/21 07:20:34;;;;;;;20.17;13.60;;;;;;;-145.63;48.46;38758.28;5026276;28;20030;-63
2023/09/21 07:23:01;;;;;;;18.80;12.68;;;;;;;-145.63;47.93;38758.28;5008333;28;20040;-63
2023/09/21 07:25:28;;;;;;;23.30;14.20;;;;;;;-145.63;48.31;38797.41;5018535;28;20037;-64
2023/09/21 07:27:57;;;;;;;23.98;17.30;;;;;;;-145.63;48.66;38805.22;5016987;28;20044;-64
2023/09/21 07:30:25;;;;;;;23.58;15.02;;;;;;;-145.63;48.40;38779.81;5011275;28;20045;-64
2023/09/21 07:32:54;;;;;;;20.92;14.50;;;;;;;-145.63;48.16;38764.16;5025624;28;20085;-63
2023/09/21 07:35:21;;;;;;;20.55;15.10;;;;;;;-145.63;48.41;38738.75;5006866;28;20030;-64
2023/09/21 07:37:49;;;;;;;24.70;15.00;;;;;;;-145.63;48.37;38044.63;5005160;28;20034;-65
2023/09/21 07:40:16;;;;;;;22.30;15.05;;;;;;;-145.63;48.41;38744.59;5025941;28;20099;-63
2023/09/21 07:42:48;;;;;;;22.10;14.77;;;;;;;-145.63;48.94;38793.50;5025716;28;20021;-64
2023/09/21 07:45:15;;;;;;;19.23;14.35;;;;;;;-145.63;48.90;38723.09;5025626;28;20033;-65
2023/09/21 07:47:41;;;;;;;22.35;13.70;;;;;;;-145.63;48.39;38758.28;5045597;28;20021;-64
2023/09/21 07:50:08;;;;;;;17.88;14.70;;;;;;;-145.63;48.57;38723.09;5025840;28;20025;-63
2023/09/21 07:52:35;;;;;;;22.08;13.52;;;;;;;-145.63;48.54;38728.97;5025261;28;20034;-64
2023/09/21 07:55:03;;;;;;;22.20;14.85;;;;;;;-145.63;47.91;38707.44;5015468;28;20383;-64
2023/09/21 07:57:33;;;;;;;16.40;13.00;;;;;;;-145.63;47.93;38687.91;5005790;28;20257;-65
2023/09/21 07:59:59;;;;;;;19.50;13.13;;;;;;;-145.63;47.56;38689.84;5007088;28;20422;-65
2023/09/21 08:02:25;;;;;;;21.05;14.18;;;;;;;-145.63;47.95;38678.13;5025599;28;20029;-65
2023/09/21 08:04:50;;;;;;;23.15;13.73;;;;;;;-145.63;47.70;38691.81;5009026;28;20030;-65
2023/09/21 08:07:23;;;;;;;18.23;12.93;;;;;;;-145.63;47.47;38721.13;5022007;28;20021;-65
2023/09/21 08:09:49;;;;;;;15.27;12.82;;;;;;;-145.63;47.42;38734.81;5017792;28;20026;-64
2023/09/21 08:12:15;;;;;;;22.77;13.90;;;;;;;-145.63;47.36;38703.53;5029460;28;20025;-64
2023/09/21 08:14:40;;;;;;;26.13;14.18;;;;;;;-145.63;47.57;38670.28;5044992;28;20029;-65
2023/09/21 08:17:08;;;;;;;18.95;12.73;;;;;;;-145.63;46.98;38746.56;5040043;28;20260;-64
2023/09/21 08:19:35;;;;;;;23.67;13.65;;;;;;;-145.63;46.91;38707.44;5029751;28;20086;-63
2023/09/21 08:22:01;;;;;;;17.73;12.95;;;;;;;-145.63;46.98;38713.31;5024871;28;20037;-64
2023/09/21 08:24:27;;;;;;;19.90;13.95;;;;;;;-145.63;46.84;38666.38;5020354;28;20279;-63
2023/09/21 08:26:52;;;;;;;22.65;13.18;;;;;;;-145.63;46.65;38715.28;5031147;28;20076;-64
2023/09/21 08:29:21;;;;;;;18.08;12.20;;;;;;;-145.63;47.11;38703.53;5024944;28;20311;-64
2023/09/21 08:31:48;;;;;;;16.77;12.82;;;;;;;-145.63;47.05;38732.88;5009238;28;20089;-64
2023/09/21 08:34:15;;;;;;;17.60;13.25;;;;;;;-145.63;46.94;38717.22;5016628;28;20080;-64
2023/09/21 08:36:44;;;;;;;22.80;12.65;;;;;;;-145.63;47.09;38713.31;5017865;28;20365;-64
2023/09/21 08:39:11;;;;;;;21.00;13.82;;;;;;;-145.63;46.98;38695.72;5007761;28;20030;-65
2023/09/21 08:41:42;;;;;;;17.27;12.13;;;;;;;-145.63;47.18;38701.59;5024825;28;20022;-64
2023/09/21 08:44:07;;;;;;;19.25;13.95;;;;;;;-145.63;47.02;38678.13;5025902;28;20092;-64
2023/09/21 08:46:36;;;;;;;20.20;14.70;;;;;;;-145.63;47.13;38703.53;5040666;28;20309;-63
2023/09/21 08:49:03;;;;;;;19.20;14.13;;;;;;;-145.63;47.37;38680.06;5034790;28;20089;-64
2023/09/21 08:51:32;;;;;;;21.55;14.85;;;;;;;-145.63;47.26;38711.38;5024278;28;20337;-63
2023/09/21 08:53:59;;;;;;;17.35;14.00;;;;;;;-145.63;47.00;38719.19;5023894;28;20022;-63
2023/09/21 08:56:27;;;;;;;19.77;15.15;;;;;;;-145.63;47.13;38703.53;5026731;28;20076;-64
2023/09/21 08:58:57;;;;;;;19.33;13.00;;;;;;;-145.63;47.09;38717.22;5011783;28;20039;-63
2023/09/21 09:01:24;;;;;;;18.92;14.63;;;;;;;-145.63;47.23;38687.91;5016096;28;20021;-64
2023/09/21 09:03:51;;;;;;;23.23;15.93;;;;;;;-145.63;47.80;38785.66;5016959;28;20255;-63
2023/09/21 09:06:17;;;;;;;22.23;14.48;;;;;;;-145.63;47.70;38703.53;5018439;28;20187;-64
2023/09/21 09:08:46;;;;;;;22.77;14.82;;;;;;;-145.63;47.77;38807.19;5024288;28;20049;-64
2023/09/21 09:11:39;;;;;;;21.08;13.43;;;;;;;-145.63;47.49;38760.25;5032903;28;20237;-64
2023/09/21 09:14:22;;;;;;;22.45;14.23;;;;;;;-145.63;47.79;38717.22;5020019;28;20026;-64
2023/09/21 09:16:49;;;;;;;24.95;14.98;;;;;;;-145.63;47.14;38723.09;5014987;28;20046;-64
2023/09/21 09:19:15;;;;;;;26.30;18.75;;;;;;;-145.63;47.32;38662.47;5018530;28;20025;-65
2023/09/21 09:21:42;;;;;;;24.67;16.88;;;;;;;-145.63;47.39;38717.22;5010567;28;20295;-65
2023/09/21 09:24:14;;;;;;;29.05;16.80;;;;;;;-145.63;47.65;38750.47;5021963;28;20226;-64
2023/09/21 09:26:41;;;;;;;21.98;15.88;;;;;;;-145.63;48.21;38738.75;5027625;28;20044;-65
2023/09/21 09:29:11;;;;;;;19.58;15.82;;;;;;;-145.63;47.76;38748.50;5025780;28;20037;-64
2023/09/21 09:31:41;;;;;;;20.48;14.90;;;;;;;-145.63;47.95;38719.19;5028146;28;20022;-65
2023/09/21 09:34:09;;;;;;;26.35;16.10;;;;;;;-145.63;47.49;38703.53;5024193;28;20034;-64
2023/09/21 09:36:36;;;;;;;38.10;16.50;;;;;;;-145.63;47.37;38666.38;5009171;28;20033;-64
2023/09/21 09:39:08;;;;;;;25.60;14.95;;;;;;;-145.63;47.11;38684.00;5023463;28;20376;-64
2023/09/21 09:41:34;;;;;;;23.45;15.60;;;;;;;-145.63;47.21;38707.44;5023758;28;20313;-64
2023/09/21 09:44:05;;;;;;;23.13;15.35;;;;;;;-145.63;46.79;38676.16;5038169;28;20040;-65
2023/09/21 09:46:35;;;;;;;27.05;14.27;;;;;;;-145.63;47.70;38656.59;5040871;28;20057;-64
2023/09/21 09:49:02;;;;;;;24.45;15.15;;;;;;;-145.63;47.37;38707.44;5034453;28;20121;-65
2023/09/21 09:51:46;;;;;;;18.48;13.93;;;;;;;-145.63;46.46;38689.84;5023185;28;20029;-64
2023/09/21 09:54:14;;;;;;;22.67;14.13;;;;;;;-145.63;46.63;38668.34;5015326;28;20058;-64
2023/09/21 09:56:41;;;;;;;21.35;13.40;;;;;;;-145.63;46.45;38674.22;5023439;28;20045;-64
2023/09/21 09:59:11;;;;;;;17.63;12.43;;;;;;;-145.63;46.76;38650.75;5005832;28;20037;-64
2023/09/21 10:01:39;;;;;;;19.27;14.75;;;;;;;-145.63;46.44;38728.97;5017379;28;20033;-64
2023/09/21 10:04:08;;;;;;;18.60;12.65;;;;;;;-145.63;46.48;38664.44;5014158;28;20198;-64
2023/09/21 10:06:36;;;;;;;25.35;20.00;;;;;;;-145.63;46.75;38642.91;5013944;28;20033;-64
2023/09/21 10:09:10;;;;;;;15.88;12.35;;;;;;;-145.63;46.55;38654.66;5023444;28;20053;-65
2023/09/21 10:11:42;;;;;;;22.10;13.07;;;;;;;-145.63;46.18;38703.53;5020197;28;20315;-64
2023/09/21 10:14:11;;;;;;;21.38;13.38;;;;;;;-145.63;46.62;38652.69;5020948;28;20080;-64
2023/09/21 10:16:45;;;;;;;20.02;12.10;;;;;;;-145.63;46.84;38615.53;5009884;28;20026;-64
2023/09/21 10:19:17;;;;;;;21.65;12.48;;;;;;;-145.63;47.09;38642.91;5013553;28;20030;-64
2023/09/21 10:21:45;;;;;;;21.98;12.95;;;;;;;-145.63;46.50;38646.84;5017099;28;20077;-64
2023/09/21 10:24:15;;;;;;;18.85;11.48;;;;;;;-145.63;46.64;38662.47;5005124;28;20026;-65
2023/09/21 10:26:45;;;;;;;14.48;11.25;;;;;;;-145.63;46.52;38637.06;5034248;28;20056;-64
2023/09/21 10:29:12;;;;;;;16.52;12.70;;;;;;;-145.63;46.46;38650.75;5023703;28;20329;-64
2023/09/21 10:31:39;;;;;;;17.05;12.30;;;;;;;-145.63;46.83;38639.00;5015333;28;20092;-64
2023/09/21 10:34:26;;;;;;;18.98;12.75;;;;;;;-145.63;46.89;38617.50;5020967;28;20302;-65
2023/09/21 10:37:00;;;;;;;23.20;13.18;;;;;;;-145.63;47.17;38648.78;5020177;28;20029;-64
2023/09/21 10:39:28;;;;;;;20.25;14.40;;;;;;;-145.63;46.66;38609.69;5019584;28;20026;-63
2023/09/21 10:41:56;;;;;;;17.00;12.65;;;;;;;-145.63;46.47;38619.47;5013459;28;20044;-63
2023/09/21 10:44:53;;;;;;;20.45;12.23;;;;;;;-145.63;46.60;38601.84;5013504;28;20319;-64
2023/09/21 10:47:38;;;;;;;19.77;13.18;;;;;;;-145.63;46.37;38586.22;5020391;28;20037;-64
2023/09/21 10:50:10;;;;;;;19.35;13.93;;;;;;;-145.63;46.06;38650.75;5006633;28;20314;-64
2023/09/21 10:52:41;;;;;;;28.02;14.82;;;;;;;-145.63;46.01;38662.47;5003287;28;20038;-64
2023/09/21 10:55:09;;;;;;;24.52;15.68;;;;;;;-145.63;45.95;38594.03;5009178;28;20030;-64
2023/09/21 10:57:35;;;;;;;23.67;14.77;;;;;;;-145.63;45.76;38552.97;5015398;28;20349;-64
2023/09/21 11:00:04;;;;;;;21.58;14.30;;;;;;;-145.63;45.51;38525.59;5011351;28;20104;-64
2023/09/21 11:02:31;;;;;;;20.75;14.18;;;;;;;-145.63;45.23;38570.56;5012218;28;20101;-64
2023/09/21 11:04:58;;;;;;;25.20;14.52;;;;;;;-145.63;45.16;38574.47;5011829;28;20033;-63
2023/09/21 11:07:25;;;;;;;17.33;13.10;;;;;;;-145.63;45.15;38539.28;5025955;28;20096;-64
2023/09/21 11:09:50;;;;;;;20.98;14.10;;;;;;;-145.63;45.37;38545.16;5014207;28;20230;-64
2023/09/21 11:12:17;;;;;;;17.30;12.35;;;;;;;-145.63;45.07;38562.75;5034950;28;20096;-64
2023/09/21 11:14:45;;;;;;;20.63;13.23;;;;;;;-145.63;45.47;38556.88;5022878;28;20038;-65